首页
METAR-TAF:

METAR-TAF

机场 :

La Crosse, 威斯康辛州, 美国

纬度: 43-52-46N, 经度: 091-15-24W, 海拔: 199米

当前天气观测

该预报发布于1小时和35分钟前的03:53 UTC
风速13节,风向
温度 27°C
湿度 66%
气压 1004 hPa
能見度: 16.1公里
天空无云

METAR: KLSE 250353Z AUTO 17013KT 10SM CLR 27/20 A2964 RMK AO2 SLP026 T02720200

时间: 00:28 (05:28 UTC)

预报

该预报发布于1小时和57分钟前的03:31 UTC
预报有效从25日的 04点(UTC)到 25日的 24点(UTC)
风速11节,风向,有时为19节阵风
能見度: 10公里
散云层高于4000英尺
多云层高于9000英尺, 积雨云.
小阵雨, 附近有雷暴
短暂存在
从 25日的 04点(UTC)到 25日的 07点(UTC)
能見度: 3.2公里
阴天层高于2000英尺, 积雨云.
雷暴, 大雨, 轻雾
从 25日的 0700点(UTC)
风速8节,风向西转西南
能見度: 10公里
散云层高于8000英尺
从 25日的 1400点(UTC)
风速8节,风向西转西北
能見度: 10公里
散云层高于15000英尺

TAF: KLSE 250331Z 2504/2524 18011G19KT P6SM -SHRA VCTS SCT040 BKN090CB TEMPO 2504/2507 2SM +TSRA BR OVC020CB FM250700 24008KT P6SM SCT080 FM251400 30008KT P6SM SCT150

超过4000个机场的气象观测和天气预报(METAR&TAF报告)。

可查询的气象台以黄色和红色小点在地图上表示。

将鼠标移到小点上方,可查看气象台名称。

然后点击查看天气观测和预报。

如需切换地图:点击带黑十字的绿色按钮放大地图;点击带横线的绿色按钮缩小地图;或者点击绿色箭头查看邻近地区的地图。


METAR-TAF: